Midnight Sun — WDG4581 — position and weather

sailwx.info

Track history (hours):
 
Tides and Currents Weather Stations Pressure Air Temp Water Temp Dewpoint Dewpoint Depression Visibility Wind Speed Wind Dir Waves Ship Positions

Midnight Sun

Owner: Findley, Bob, Seattle, WA. More information available from US FCC via Universal Licensing System and Coast Guard Vessel Documentation Center.

Last reported at 2015-Aug-26 23:28 UTC. Time now 2015-Sep-01 12:14 UTC.
Position N 47°39' W 122°26'.

Length 16 m.

Type: Pleasure craft. MMSI: 367538070.

Date/timePositionNaut miles runAvg speedWind from/ knotsBaromVisibWave heightAir tempDewpointWater temp
2015-Aug-26 23:28N 47°39' W 122°26'2 2.2
2015-Aug-26 22:33N 47°40' W 122°23'1 0.6
2015-Aug-26 20:25N 47°39' W 122°22'1 1.4
2015-Aug-26 19:31N 47°40' W 122°23'1 0.7
2015-Aug-26 18:29N 47°40' W 122°24'  
2015-Aug-19 22:25N 47°38' W 122°24'5 5.4
2015-Aug-19 21:33N 47°42' W 122°26'8 7.6
2015-Aug-19 20:33N 47°49' W 122°29'47 1.8
2015-Aug-18 17:33N 48°29' W 123°08'7 0.4
2015-Aug-18 00:08N 48°36' W 123°10'1 0.2
2015-Aug-17 20:10N 48°35' W 123°10'7 3.9
2015-Aug-17 18:28N 48°33' W 123°00'  
Track history (hours):
 
Tides and Currents Weather Stations Pressure Air Temp Water Temp Dewpoint Dewpoint Depression Visibility Wind Speed Wind Dir Waves Ship Positions

Midnight Sun

Owner: Findley, Bob, Seattle, WA. More information available from US FCC via Universal Licensing System and Coast Guard Vessel Documentation Center.

Last reported at 2015-Aug-26 23:28 UTC. Time now 2015-Sep-01 12:14 UTC.
Position N 47°39' W 122°26'.

Length 16 m.

Type: Pleasure craft. MMSI: 367538070.

Date/timePositionNaut miles runAvg speedWind from/ knotsBaromVisibWave heightAir tempDewpointWater temp
2015-Aug-26 23:28N 47°39' W 122°26'2 2.2
2015-Aug-26 22:33N 47°40' W 122°23'1 0.6
2015-Aug-26 20:25N 47°39' W 122°22'1 1.4
2015-Aug-26 19:31N 47°40' W 122°23'1 0.7
2015-Aug-26 18:29N 47°40' W 122°24'  
2015-Aug-19 22:25N 47°38' W 122°24'5 5.4
2015-Aug-19 21:33N 47°42' W 122°26'8 7.6
2015-Aug-19 20:33N 47°49' W 122°29'47 1.8
2015-Aug-18 17:33N 48°29' W 123°08'7 0.4
2015-Aug-18 00:08N 48°36' W 123°10'1 0.2
2015-Aug-17 20:10N 48°35' W 123°10'7 3.9
2015-Aug-17 18:28N 48°33' W 123°00'  

Dump ship's entire track history